createdAt,value
2022-10-23T00:01:46.203Z,100.00
2022-10-23T00:04:21.935Z,100.00
2022-10-23T00:06:50.258Z,100.00
2022-10-23T00:09:23.797Z,100.00
2022-10-23T00:11:53.369Z,100.00
2022-10-23T00:14:24.463Z,100.00
2022-10-23T00:16:52.797Z,100.00
2022-10-23T00:19:21.094Z,100.00
2022-10-23T00:21:49.491Z,100.00
2022-10-23T00:24:17.937Z,100.00
2022-10-23T00:26:46.160Z,100.00
2022-10-23T00:29:14.426Z,100.00
2022-10-23T00:31:42.690Z,100.00
2022-10-23T00:34:11.121Z,100.00
2022-10-23T00:36:39.453Z,100.00
2022-10-23T00:39:07.714Z,100.00
2022-10-23T00:41:36.506Z,100.00
2022-10-23T00:44:30.756Z,100.00
2022-10-23T00:46:59.938Z,100.00
2022-10-23T00:49:28.524Z,100.00
2022-10-23T00:52:02.081Z,100.00
2022-10-23T00:54:37.290Z,100.00
2022-10-23T00:57:11.546Z,100.00
2022-10-23T00:59:39.958Z,100.00
2022-10-23T01:02:09.371Z,100.00
2022-10-23T01:04:38.454Z,100.00
2022-10-23T01:07:17.644Z,100.00
2022-10-23T01:10:08.629Z,100.00
2022-10-23T01:13:20.872Z,100.00
2022-10-23T01:16:33.806Z,100.00
2022-10-23T01:19:20.437Z,100.00
2022-10-23T01:22:10.307Z,100.00
2022-10-23T01:25:29.882Z,100.00
2022-10-23T01:28:09.441Z,100.00
2022-10-23T01:30:42.973Z,100.00
2022-10-23T01:33:18.362Z,100.00
2022-10-23T01:35:56.792Z,100.00
2022-10-23T01:38:56.339Z,100.00
2022-10-23T01:41:36.132Z,100.00
2022-10-23T01:44:11.030Z,100.00
2022-10-23T01:46:40.525Z,100.00
2022-10-23T01:49:13.070Z,100.00
2022-10-23T01:52:01.677Z,100.00
2022-10-23T01:54:34.255Z,100.00
2022-10-23T01:57:04.576Z,100.00
2022-10-23T01:59:39.689Z,100.00
2022-10-23T02:02:11.468Z,100.00
2022-10-23T02:04:57.684Z,100.00
2022-10-23T02:07:26.484Z,100.00
2022-10-23T02:09:54.755Z,100.00
2022-10-23T02:12:49.757Z,100.00
2022-10-23T02:15:46.639Z,100.00
2022-10-23T02:18:50.552Z,100.00
2022-10-23T02:22:09.617Z,100.00
2022-10-23T02:25:23.174Z,100.00
2022-10-23T02:27:55.211Z,100.00
2022-10-23T02:30:23.584Z,100.00
2022-10-23T02:32:54.957Z,100.00
2022-10-23T02:35:25.341Z,100.00
2022-10-23T02:38:00.138Z,100.00
2022-10-23T02:40:38.899Z,100.00
2022-10-23T02:43:15.779Z,100.00
2022-10-23T02:46:16.305Z,100.00
2022-10-23T02:48:58.681Z,100.00
2022-10-23T02:52:07.745Z,100.00
2022-10-23T02:55:18.250Z,100.00
2022-10-23T02:58:00.810Z,100.00
2022-10-23T03:00:32.921Z,100.00
2022-10-23T03:03:10.110Z,100.00
2022-10-23T03:05:41.558Z,100.00
2022-10-23T03:08:11.885Z,100.00
2022-10-23T03:10:41.907Z,100.00
2022-10-23T03:13:11.643Z,100.00
2022-10-23T03:15:39.850Z,100.00
2022-10-23T03:18:08.105Z,100.00
2022-10-23T03:20:36.446Z,100.00
2022-10-23T03:23:04.696Z,100.00
2022-10-23T03:25:32.886Z,100.00
2022-10-23T03:28:01.194Z,100.00
2022-10-23T03:30:29.937Z,100.00
2022-10-23T03:32:58.381Z,100.00
2022-10-23T03:35:26.711Z,100.00
2022-10-23T03:37:54.964Z,100.00
2022-10-23T03:40:23.188Z,100.00
2022-10-23T03:42:51.490Z,100.00
2022-10-23T03:45:19.981Z,100.00
2022-10-23T03:47:48.777Z,100.00
2022-10-23T03:50:18.430Z,100.00
2022-10-23T03:52:46.674Z,100.00
2022-10-23T03:55:14.890Z,100.00
2022-10-23T03:57:43.267Z,100.00
2022-10-23T04:00:12.311Z,100.00
2022-10-23T04:02:40.697Z,100.00
2022-10-23T04:05:09.275Z,100.00
2022-10-23T04:07:37.881Z,100.00
2022-10-23T04:10:07.233Z,100.00
2022-10-23T04:12:35.526Z,100.00
2022-10-23T04:15:04.505Z,100.00
2022-10-23T04:17:32.720Z,100.00
2022-10-23T04:20:01.005Z,100.00
2022-10-23T04:22:29.226Z,100.00
2022-10-23T04:24:57.419Z,100.00
2022-10-23T04:27:25.747Z,100.00
2022-10-23T04:29:56.786Z,100.00
2022-10-23T04:32:27.335Z,100.00
2022-10-23T04:34:55.609Z,100.00
2022-10-23T04:37:23.870Z,100.00
2022-10-23T04:39:52.092Z,100.00
2022-10-23T04:42:20.668Z,100.00
2022-10-23T04:44:48.936Z,100.00
2022-10-23T04:47:17.168Z,100.00
2022-10-23T04:49:45.428Z,100.00
2022-10-23T04:52:13.669Z,100.00
2022-10-23T04:54:42.000Z,100.00
2022-10-23T04:57:11.060Z,100.00
2022-10-23T04:59:39.687Z,100.00
2022-10-23T05:02:08.327Z,100.00
2022-10-23T05:04:36.567Z,100.00
2022-10-23T05:07:04.751Z,100.00
2022-10-23T05:09:33.188Z,100.00
2022-10-23T05:12:01.928Z,100.00
2022-10-23T05:14:30.738Z,100.00
2022-10-23T05:17:13.109Z,100.00
2022-10-23T05:19:50.399Z,100.00
2022-10-23T05:22:20.826Z,100.00
2022-10-23T05:24:50.606Z,100.00
2022-10-23T05:27:19.354Z,100.00
2022-10-23T05:29:47.627Z,100.00
2022-10-23T05:32:16.953Z,100.00
2022-10-23T05:34:45.697Z,100.00
2022-10-23T05:37:16.777Z,100.00
2022-10-23T05:39:45.051Z,100.00
2022-10-23T05:42:13.415Z,100.00
2022-10-23T05:44:41.742Z,100.00
2022-10-23T05:47:10.034Z,100.00
2022-10-23T05:49:38.230Z,100.00
2022-10-23T05:52:06.530Z,100.00
2022-10-23T05:54:34.749Z,100.00
2022-10-23T05:57:03.067Z,100.00
2022-10-23T05:59:31.406Z,100.00
2022-10-23T06:01:59.895Z,100.00
2022-10-23T06:04:28.430Z,100.00
2022-10-23T06:06:56.657Z,100.00
2022-10-23T06:09:24.906Z,100.00
2022-10-23T06:11:53.235Z,100.00
2022-10-23T06:14:21.499Z,100.00
2022-10-23T06:16:49.805Z,100.00
2022-10-23T06:19:18.422Z,100.00
2022-10-23T06:21:46.584Z,100.00
2022-10-23T06:24:15.062Z,100.00
2022-10-23T06:26:43.254Z,100.00
2022-10-23T06:29:11.713Z,100.00
2022-10-23T06:31:39.950Z,100.00
2022-10-23T06:34:11.926Z,100.00
2022-10-23T06:36:40.323Z,100.00
2022-10-23T06:39:10.176Z,100.00
2022-10-23T06:41:39.876Z,100.00
2022-10-23T06:44:10.202Z,100.00
2022-10-23T06:46:38.504Z,100.00
2022-10-23T06:49:06.920Z,100.00
2022-10-23T06:51:35.159Z,100.00
2022-10-23T06:54:03.530Z,100.00
2022-10-23T06:56:31.725Z,100.00
2022-10-23T06:59:00.004Z,100.00
2022-10-23T07:01:28.432Z,100.00
2022-10-23T07:03:56.888Z,100.00
2022-10-23T07:06:25.177Z,100.00
2022-10-23T07:08:53.468Z,100.00
2022-10-23T07:11:21.705Z,100.00
2022-10-23T07:13:49.915Z,100.00
2022-10-23T07:16:22.025Z,100.00
2022-10-23T07:18:59.719Z,100.00
2022-10-23T07:21:31.422Z,100.00
2022-10-23T07:23:59.612Z,100.00
2022-10-23T07:26:28.718Z,100.00
2022-10-23T07:28:56.925Z,100.00
2022-10-23T07:31:28.151Z,100.00
2022-10-23T07:33:56.740Z,100.00
2022-10-23T07:36:25.131Z,100.00
2022-10-23T07:38:53.492Z,100.00
2022-10-23T07:41:21.874Z,100.00
2022-10-23T07:43:50.133Z,100.00
2022-10-23T07:46:18.390Z,100.00
2022-10-23T07:48:46.602Z,100.00
2022-10-23T07:51:16.463Z,100.00
2022-10-23T07:53:45.629Z,100.00
2022-10-23T07:56:21.072Z,100.00
2022-10-23T07:58:53.786Z,100.00
2022-10-23T08:01:30.950Z,100.00
2022-10-23T08:04:00.936Z,100.00
2022-10-23T08:06:29.897Z,100.00
2022-10-23T08:08:59.916Z,100.00
2022-10-23T08:11:35.294Z,100.00
2022-10-23T08:14:06.003Z,100.00
2022-10-23T08:16:37.958Z,100.00
2022-10-23T08:19:08.139Z,100.00
2022-10-23T08:21:36.555Z,100.00
2022-10-23T08:24:05.489Z,100.00
2022-10-23T08:26:33.862Z,100.00
2022-10-23T08:29:02.089Z,100.00
2022-10-23T08:31:30.453Z,100.00
2022-10-23T08:33:58.741Z,100.00
2022-10-23T08:36:28.835Z,100.00
2022-10-23T08:38:58.179Z,100.00
2022-10-23T08:41:44.285Z,100.00
2022-10-23T08:44:57.232Z,100.00
2022-10-23T08:47:43.102Z,100.00
2022-10-23T08:50:42.576Z,100.00
2022-10-23T08:53:45.580Z,100.00
2022-10-23T08:56:21.407Z,100.00
2022-10-23T08:59:28.226Z,100.00
2022-10-23T09:02:11.724Z,100.00
2022-10-23T09:04:42.631Z,100.00
2022-10-23T09:07:52.622Z,100.00
2022-10-23T09:10:32.830Z,100.00
2022-10-23T09:13:31.314Z,100.00
2022-10-23T09:16:25.415Z,100.00
2022-10-23T09:18:54.948Z,100.00
2022-10-23T09:21:30.235Z,100.00
2022-10-23T09:23:58.449Z,100.00
2022-10-23T09:26:26.715Z,100.00
2022-10-23T09:29:14.258Z,100.00
2022-10-23T09:31:57.988Z,100.00
2022-10-23T09:34:30.035Z,100.00
2022-10-23T09:37:17.609Z,100.00
2022-10-23T09:39:46.237Z,100.00
2022-10-23T09:42:26.016Z,100.00
2022-10-23T09:44:55.791Z,100.00
2022-10-23T09:47:26.073Z,100.00
2022-10-23T09:49:57.103Z,100.00
2022-10-23T09:52:38.953Z,100.00
2022-10-23T09:55:25.148Z,100.00
2022-10-23T09:57:54.282Z,100.00
2022-10-23T10:00:28.002Z,100.00
2022-10-23T10:03:06.632Z,100.00
2022-10-23T10:05:41.508Z,100.00
2022-10-23T10:08:40.601Z,100.00
2022-10-23T10:11:30.631Z,100.00
2022-10-23T10:14:47.018Z,100.00
2022-10-23T10:17:28.667Z,99.26
2022-10-23T10:20:12.784Z,97.13
2022-10-23T10:22:58.577Z,95.98
2022-10-23T10:25:49.752Z,95.37
2022-10-23T10:28:34.199Z,93.97
2022-10-23T10:31:29.895Z,93.76
2022-10-23T10:34:22.390Z,93.63
2022-10-23T10:37:16.945Z,93.62
2022-10-23T10:40:00.096Z,93.13
2022-10-23T10:43:13.532Z,92.90
2022-10-23T10:45:53.300Z,92.80
2022-10-23T10:48:59.477Z,92.95
2022-10-23T10:51:49.122Z,92.79
2022-10-23T10:54:43.814Z,92.02
2022-10-23T10:57:36.587Z,92.17
2022-10-23T11:00:28.565Z,92.88
2022-10-23T11:03:28.891Z,93.18
2022-10-23T11:08:49.964Z,91.89
2022-10-23T11:11:37.707Z,91.97
2022-10-23T11:14:14.319Z,91.76
2022-10-23T11:16:48.110Z,91.43
2022-10-23T11:19:34.444Z,91.17
2022-10-23T11:22:28.659Z,91.34
2022-10-23T11:25:34.012Z,91.20
2022-10-23T11:28:35.114Z,90.07
2022-10-23T11:31:11.919Z,89.71
2022-10-23T11:34:51.903Z,90.13
2022-10-23T11:37:22.453Z,90.31
2022-10-23T11:40:23.913Z,89.72
2022-10-23T11:42:52.720Z,88.89
2022-10-23T11:45:37.765Z,88.59
2022-10-23T11:48:43.663Z,87.93
2022-10-23T11:51:35.087Z,87.46
2022-10-23T11:54:13.590Z,87.07
2022-10-23T11:57:11.646Z,86.82
2022-10-23T11:59:49.153Z,86.88
2022-10-23T12:02:37.627Z,86.74
2022-10-23T12:05:07.265Z,87.17
2022-10-23T12:07:41.926Z,86.79
2022-10-23T12:10:34.419Z,86.10
2022-10-23T12:13:38.903Z,85.91
2022-10-23T12:16:07.615Z,85.69
2022-10-23T12:18:54.161Z,85.05
2022-10-23T12:21:28.427Z,84.56
2022-10-23T12:24:31.640Z,84.07
2022-10-23T12:27:29.837Z,83.47
2022-10-23T12:30:04.084Z,83.70
2022-10-23T12:33:26.790Z,83.57
2022-10-23T12:36:47.345Z,82.83
2022-10-23T12:39:33.622Z,82.89
2022-10-23T12:42:02.538Z,82.68
2022-10-23T12:44:31.669Z,83.10
2022-10-23T12:47:02.752Z,82.79
2022-10-23T12:49:34.199Z,82.13
2022-10-23T12:52:17.002Z,81.41
2022-10-23T12:54:45.467Z,80.82
2022-10-23T12:57:29.278Z,80.56
2022-10-23T13:00:06.355Z,80.83
2022-10-23T13:02:35.682Z,80.61
2022-10-23T13:05:09.051Z,80.31
2022-10-23T13:07:44.585Z,80.11
2022-10-23T13:10:19.938Z,80.33
2022-10-23T13:13:04.648Z,79.27
2022-10-23T13:15:43.284Z,78.67
2022-10-23T13:18:14.919Z,77.85
2022-10-23T13:20:57.471Z,76.99
2022-10-23T13:23:36.017Z,75.84
2022-10-23T13:26:24.311Z,75.52
2022-10-23T13:28:53.026Z,75.89
2022-10-23T13:31:21.354Z,75.78
2022-10-23T13:34:14.239Z,75.99
2022-10-23T13:36:54.903Z,76.40
2022-10-23T13:39:30.859Z,75.64
2022-10-23T13:42:11.420Z,75.40
2022-10-23T13:44:41.059Z,75.39
2022-10-23T13:47:13.359Z,75.36
2022-10-23T13:49:41.641Z,75.35
2022-10-23T13:52:19.472Z,75.52
2022-10-23T13:54:47.810Z,74.96
2022-10-23T13:57:16.478Z,75.00
2022-10-23T13:59:45.560Z,74.82
2022-10-23T14:02:23.628Z,75.00
2022-10-23T14:04:52.159Z,75.34
2022-10-23T14:07:20.431Z,75.72
2022-10-23T14:09:50.572Z,75.82
2022-10-23T14:12:19.159Z,75.89
2022-10-23T14:14:52.202Z,76.13
2022-10-23T14:17:21.486Z,76.61
2022-10-23T14:19:50.357Z,76.76
2022-10-23T14:22:18.583Z,76.99
2022-10-23T14:24:46.841Z,77.35
2022-10-23T14:27:15.170Z,77.87
2022-10-23T14:29:43.460Z,78.06
2022-10-23T14:32:12.074Z,78.35
2022-10-23T14:34:43.088Z,78.51
2022-10-23T14:37:11.351Z,78.45
2022-10-23T14:39:39.557Z,78.27
2022-10-23T14:42:07.851Z,78.39
2022-10-23T14:44:36.180Z,78.67
2022-10-23T14:47:04.832Z,78.55
2022-10-23T14:49:35.762Z,78.53
2022-10-23T14:52:04.326Z,78.79
2022-10-23T14:54:34.564Z,79.08
2022-10-23T14:57:03.868Z,79.00
2022-10-23T14:59:32.276Z,79.20
2022-10-23T15:02:00.684Z,79.36
2022-10-23T15:04:28.951Z,79.36
2022-10-23T15:06:57.282Z,79.50
2022-10-23T15:09:26.079Z,79.71
2022-10-23T15:11:54.454Z,80.07
2022-10-23T15:14:22.684Z,80.57
2022-10-23T15:16:51.351Z,80.89
2022-10-23T15:19:19.852Z,81.14
2022-10-23T15:21:48.695Z,81.39
2022-10-23T15:24:17.550Z,81.72
2022-10-23T15:26:46.026Z,82.03
2022-10-23T15:29:14.961Z,82.45
2022-10-23T15:31:54.713Z,82.85
2022-10-23T15:34:27.081Z,83.21
2022-10-23T15:36:57.468Z,83.42
2022-10-23T15:39:33.756Z,83.65
2022-10-23T15:42:06.083Z,84.00
2022-10-23T15:44:35.136Z,84.34
2022-10-23T15:47:03.790Z,84.52
2022-10-23T15:49:32.719Z,84.67
2022-10-23T15:52:02.398Z,84.93
2022-10-23T15:54:32.935Z,85.10
2022-10-23T15:57:02.564Z,85.29
2022-10-23T15:59:32.259Z,85.53
2022-10-23T16:02:00.985Z,85.80
2022-10-23T16:04:29.986Z,86.03
2022-10-23T16:06:58.282Z,86.28
2022-10-23T16:09:26.610Z,86.49
2022-10-23T16:11:54.828Z,86.78
2022-10-23T16:14:23.132Z,87.25
2022-10-23T16:16:51.435Z,87.63
2022-10-23T16:19:19.766Z,87.93
2022-10-23T16:21:48.127Z,88.27
2022-10-23T16:24:16.409Z,88.69
2022-10-23T16:26:50.219Z,88.96
2022-10-23T16:29:24.414Z,89.11
2022-10-23T16:31:54.420Z,89.13
2022-10-23T16:34:23.305Z,89.07
2022-10-23T16:36:51.593Z,89.03
2022-10-23T16:39:20.876Z,89.22
2022-10-23T16:41:49.187Z,89.46
2022-10-23T16:44:18.227Z,89.81
2022-10-23T16:46:46.499Z,90.09
2022-10-23T16:49:14.836Z,90.23
2022-10-23T16:51:43.094Z,90.45
2022-10-23T16:54:11.458Z,90.44
2022-10-23T16:56:40.218Z,90.50
2022-10-23T16:59:09.911Z,90.59
2022-10-23T17:01:38.491Z,90.97
2022-10-23T17:04:08.374Z,91.36
2022-10-23T17:06:37.551Z,91.54
2022-10-23T17:09:06.361Z,91.59
2022-10-23T17:11:38.908Z,91.93
2022-10-23T17:14:12.095Z,92.39
2022-10-23T17:16:50.412Z,92.77
2022-10-23T17:22:12.531Z,93.36
2022-10-23T17:24:44.225Z,93.48
2022-10-23T17:27:14.766Z,93.76
2022-10-23T17:29:43.100Z,93.85
2022-10-23T17:32:11.369Z,94.11
2022-10-23T17:34:39.720Z,94.30
2022-10-23T17:37:09.048Z,94.42
2022-10-23T17:39:37.431Z,94.45
2022-10-23T17:42:05.730Z,94.45
2022-10-23T17:44:34.036Z,94.52
2022-10-23T17:47:02.353Z,94.53
2022-10-23T17:49:30.718Z,94.43
2022-10-23T17:51:58.974Z,94.55
2022-10-23T17:54:28.024Z,94.74
2022-10-23T17:56:57.086Z,94.92
2022-10-23T17:59:25.336Z,94.98
2022-10-23T18:01:53.890Z,95.09
2022-10-23T18:04:22.433Z,95.22
2022-10-23T18:06:53.637Z,95.23
2022-10-23T18:09:23.105Z,95.22
2022-10-23T18:11:51.798Z,95.32
2022-10-23T18:14:21.708Z,95.43
2022-10-23T18:16:52.556Z,95.56
2022-10-23T18:19:21.320Z,95.51
2022-10-23T18:21:49.659Z,95.26
2022-10-23T18:24:19.198Z,95.59
2022-10-23T18:26:48.391Z,95.88
2022-10-23T18:29:17.992Z,95.99
2022-10-23T18:31:48.429Z,96.18
2022-10-23T18:34:21.703Z,96.28
2022-10-23T18:36:52.408Z,96.39
2022-10-23T18:39:24.749Z,96.69
2022-10-23T18:41:56.944Z,96.85
2022-10-23T18:44:28.989Z,96.88
2022-10-23T18:46:59.438Z,97.10
2022-10-23T18:49:28.393Z,97.00
2022-10-23T18:51:58.343Z,97.01
2022-10-23T18:54:27.284Z,97.05
2022-10-23T18:56:55.730Z,97.08
2022-10-23T18:59:24.498Z,97.22
2022-10-23T19:01:53.043Z,97.49
2022-10-23T19:04:21.504Z,97.58
2022-10-23T19:06:50.809Z,97.67
2022-10-23T19:09:20.193Z,97.63
2022-10-23T19:11:49.255Z,97.56
2022-10-23T19:14:17.639Z,97.62
2022-10-23T19:16:59.835Z,97.59
2022-10-23T19:19:41.508Z,97.59
2022-10-23T19:22:12.593Z,97.78
2022-10-23T19:24:58.364Z,97.91
2022-10-23T19:27:27.078Z,97.88
2022-10-23T19:29:56.390Z,97.87
2022-10-23T19:32:24.696Z,98.27
2022-10-23T19:34:52.954Z,98.44
2022-10-23T19:37:21.196Z,98.64
2022-10-23T19:39:49.410Z,98.54
2022-10-23T19:42:17.669Z,98.74
2022-10-23T19:44:45.884Z,98.86
2022-10-23T19:47:14.168Z,98.96
2022-10-23T19:49:42.378Z,99.05
2022-10-23T19:52:10.902Z,99.21
2022-10-23T19:54:41.087Z,99.25
2022-10-23T19:57:09.475Z,99.39
2022-10-23T19:59:37.892Z,99.29
2022-10-23T20:02:06.514Z,99.39
2022-10-23T20:04:35.436Z,99.48
2022-10-23T20:07:03.689Z,99.39
2022-10-23T20:09:31.959Z,99.48
2022-10-23T20:12:00.780Z,99.42
2022-10-23T20:14:29.575Z,99.73
2022-10-23T20:16:59.732Z,99.74
2022-10-23T20:19:28.563Z,99.85
2022-10-23T20:21:56.949Z,99.95
2022-10-23T20:24:25.121Z,99.99
2022-10-23T20:26:55.820Z,100.00
2022-10-23T20:29:25.037Z,100.00
2022-10-23T20:31:53.341Z,100.00
2022-10-23T20:34:21.733Z,100.00
2022-10-23T20:36:50.183Z,100.00
2022-10-23T20:39:26.932Z,100.00
2022-10-23T20:41:56.689Z,100.00
2022-10-23T20:44:24.911Z,100.00
2022-10-23T20:46:53.403Z,100.00
2022-10-23T20:49:22.868Z,100.00
2022-10-23T20:51:55.661Z,100.00
2022-10-23T20:54:27.546Z,100.00
2022-10-23T20:56:57.050Z,100.00
2022-10-23T20:59:25.614Z,100.00
2022-10-23T21:01:56.313Z,100.00
2022-10-23T21:04:27.991Z,100.00
2022-10-23T21:07:09.406Z,100.00
2022-10-23T21:09:39.941Z,100.00
2022-10-23T21:12:09.010Z,100.00
2022-10-23T21:14:37.370Z,100.00
2022-10-23T21:17:05.829Z,100.00
2022-10-23T21:19:34.441Z,100.00
2022-10-23T21:22:02.676Z,100.00
2022-10-23T21:24:31.175Z,100.00
2022-10-23T21:26:59.433Z,100.00
2022-10-23T21:29:27.710Z,100.00
2022-10-23T21:31:59.739Z,100.00
2022-10-23T21:34:29.047Z,100.00
2022-10-23T21:37:14.100Z,100.00
2022-10-23T21:39:44.494Z,100.00
2022-10-23T21:42:14.477Z,100.00
2022-10-23T21:44:42.906Z,100.00
2022-10-23T21:47:11.430Z,100.00
2022-10-23T21:49:39.687Z,100.00
2022-10-23T21:52:07.997Z,100.00
2022-10-23T21:54:36.318Z,100.00
2022-10-23T21:57:04.576Z,100.00
2022-10-23T21:59:35.923Z,100.00
2022-10-23T22:02:04.820Z,100.00
2022-10-23T22:04:33.287Z,100.00
2022-10-23T22:07:03.041Z,100.00
2022-10-23T22:09:32.900Z,100.00
2022-10-23T22:12:01.642Z,100.00
2022-10-23T22:14:29.975Z,100.00
2022-10-23T22:16:58.839Z,100.00
2022-10-23T22:19:27.178Z,100.00
2022-10-23T22:21:55.544Z,100.00
2022-10-23T22:24:24.002Z,100.00
2022-10-23T22:26:56.148Z,100.00
2022-10-23T22:29:28.549Z,100.00
2022-10-23T22:31:58.128Z,100.00
2022-10-23T22:37:18.324Z,100.00
2022-10-23T22:39:50.454Z,100.00
2022-10-23T22:42:20.262Z,100.00
2022-10-23T22:44:48.529Z,100.00
2022-10-23T22:47:16.810Z,100.00
2022-10-23T22:49:45.060Z,100.00
2022-10-23T22:52:13.467Z,100.00
2022-10-23T22:54:41.713Z,100.00
2022-10-23T22:57:09.915Z,100.00
2022-10-23T22:59:38.165Z,100.00
2022-10-23T23:02:06.692Z,100.00
2022-10-23T23:04:38.864Z,100.00
2022-10-23T23:07:10.923Z,100.00
2022-10-23T23:09:43.802Z,100.00
2022-10-23T23:12:14.455Z,100.00
2022-10-23T23:14:43.038Z,100.00
2022-10-23T23:17:11.834Z,100.00
2022-10-23T23:19:40.632Z,100.00
2022-10-23T23:22:09.137Z,100.00
2022-10-23T23:24:38.992Z,100.00
2022-10-23T23:27:07.367Z,100.00
2022-10-23T23:29:35.564Z,100.00
2022-10-23T23:32:06.132Z,100.00
2022-10-23T23:34:34.491Z,100.00
2022-10-23T23:37:02.710Z,100.00
2022-10-23T23:39:31.018Z,100.00
2022-10-23T23:41:59.269Z,100.00
2022-10-23T23:44:27.535Z,100.00
2022-10-23T23:46:56.014Z,100.00
2022-10-23T23:49:24.419Z,100.00
2022-10-23T23:51:52.686Z,100.00
2022-10-23T23:54:20.909Z,100.00
2022-10-23T23:56:49.160Z,100.00
2022-10-23T23:59:17.412Z,100.00
